DGPHX EDDN-EDML

Flight info

Callsign DGPHX
Flight time 0h 45m
Altitude 5000
Route /
Aircraft DA62/L-V/N

Departure

Time 2026-04-20 13:34
Airport Nuremberg Airport (EDDN)

Arrival

Time 2026-04-20 14:20
Airport Landshut Airfield (EDML)
Time Latitude Longitude Altitude Speed Heading
2026-04-20 13:28 49.49549 11.07089 1019 ft 0 kts
2026-04-20 13:30 49.49552 11.07090 1019 ft 4 kts
2026-04-20 13:30 49.49588 11.07147 1020 ft 14 kts 88°
2026-04-20 13:30 49.49623 11.07216 1021 ft 6 kts 19°
2026-04-20 13:31 49.49635 11.07286 1022 ft 24 kts 97°
2026-04-20 13:31 49.49603 11.07612 1023 ft 28 kts 112°
2026-04-20 13:31 49.49577 11.07886 1025 ft 26 kts 107°
2026-04-20 13:31 49.49551 11.08178 1025 ft 30 kts 95°
2026-04-20 13:32 49.49576 11.08361 1027 ft 16 kts
2026-04-20 13:32 49.49639 11.08436 1025 ft 0 kts 53°
2026-04-20 13:32 49.49694 11.08539 1025 ft 10 kts 43°
2026-04-20 13:32 49.49697 11.08543 1025 ft 0 kts 41°
2026-04-20 13:33 49.49743 11.08566 1024 ft 17 kts 352°
2026-04-20 13:33 49.49810 11.08421 1024 ft 29 kts 282°
2026-04-20 13:34 49.49880 11.07821 1036 ft 80 kts 275°
2026-04-20 13:34 49.49962 11.06864 1234 ft 94 kts 286°
2026-04-20 13:34 49.50056 11.05847 1542 ft 98 kts 280°
2026-04-20 13:34 49.50139 11.04773 1883 ft 102 kts 285°
2026-04-20 13:35 49.50318 11.03775 2355 ft 97 kts 279°
2026-04-20 13:35 49.49896 11.02905 2646 ft 124 kts 208°
2026-04-20 13:35 49.48951 11.02789 2788 ft 148 kts 177°
2026-04-20 13:35 49.48006 11.03644 2784 ft 172 kts 126°
2026-04-20 13:36 49.47543 11.05379 2791 ft 181 kts 104°
2026-04-20 13:36 49.47287 11.07304 2793 ft 187 kts 93°
2026-04-20 13:36 49.47174 11.09329 2797 ft 193 kts 91°
2026-04-20 13:36 49.46764 11.11314 2784 ft 202 kts 124°
2026-04-20 13:37 49.45734 11.12757 2794 ft 200 kts 143°
2026-04-20 13:37 49.44634 11.14066 2792 ft 200 kts 141°
2026-04-20 13:37 49.43565 11.15391 2793 ft 200 kts 141°
2026-04-20 13:37 49.42478 11.16739 2791 ft 200 kts 141°
2026-04-20 13:38 49.41393 11.18075 2789 ft 199 kts 141°
2026-04-20 13:38 49.40314 11.19404 2789 ft 199 kts 141°
2026-04-20 13:38 49.39233 11.20736 2788 ft 200 kts 141°
2026-04-20 13:38 49.38149 11.22078 2800 ft 200 kts 141°
2026-04-20 13:39 49.37066 11.23431 2794 ft 200 kts 141°
2026-04-20 13:39 49.35987 11.24774 2791 ft 200 kts 141°
2026-04-20 13:39 49.34933 11.26090 2992 ft 190 kts 141°
2026-04-20 13:39 49.33928 11.27345 3248 ft 183 kts 142°
2026-04-20 13:40 49.32964 11.28587 3502 ft 180 kts 141°
2026-04-20 13:40 49.32017 11.29814 3752 ft 178 kts 142°
2026-04-20 13:40 49.30923 11.30558 3994 ft 170 kts 174°
2026-04-20 13:40 49.29767 11.30930 4256 ft 170 kts 170°
2026-04-20 13:41 49.28623 11.31433 4470 ft 175 kts 166°
2026-04-20 13:41 49.27419 11.32040 4472 ft 188 kts 164°
2026-04-20 13:41 49.26163 11.32693 4473 ft 196 kts 164°
2026-04-20 13:41 49.24856 11.33370 4475 ft 200 kts 164°
2026-04-20 13:42 49.23526 11.34057 4474 ft 203 kts 163°
2026-04-20 13:42 49.20846 11.35436 4469 ft 204 kts 163°
2026-04-20 13:42 49.19498 11.36128 4472 ft 205 kts 163°
2026-04-20 13:43 49.18144 11.36824 4466 ft 206 kts 164°
2026-04-20 13:43 49.16789 11.37521 4466 ft 206 kts 163°
2026-04-20 13:43 49.15434 11.38212 4465 ft 204 kts 165°
2026-04-20 13:43 49.14086 11.38891 4460 ft 203 kts 163°
2026-04-20 13:44 49.12751 11.39593 4456 ft 203 kts 163°
2026-04-20 13:44 49.11418 11.40277 4459 ft 202 kts 163°
2026-04-20 13:44 49.10087 11.40957 4464 ft 202 kts 164°
2026-04-20 13:44 49.08753 11.41639 4465 ft 202 kts 163°
2026-04-20 13:45 49.07415 11.42323 4455 ft 202 kts 163°
2026-04-20 13:45 49.06099 11.42996 4452 ft 202 kts 163°
2026-04-20 13:45 49.04776 11.43676 4459 ft 201 kts 163°
2026-04-20 13:45 49.03465 11.44322 4458 ft 192 kts 166°
2026-04-20 13:46 49.02230 11.44926 4454 ft 182 kts 164°
2026-04-20 13:46 49.01012 11.45580 4459 ft 190 kts 163°
2026-04-20 13:46 48.99739 11.46246 4463 ft 195 kts 164°
2026-04-20 13:46 48.98435 11.46907 4466 ft 200 kts 165°
2026-04-20 13:47 48.97100 11.47584 4469 ft 204 kts 164°
2026-04-20 13:47 48.95742 11.48276 4466 ft 206 kts 164°
2026-04-20 13:47 48.94377 11.48971 4457 ft 206 kts 163°
2026-04-20 13:47 48.93019 11.49662 4454 ft 205 kts 164°
2026-04-20 13:48 48.91673 11.50346 4457 ft 204 kts 165°
2026-04-20 13:48 48.90357 11.51014 4351 ft 202 kts 163°
2026-04-20 13:48 48.89050 11.51682 4387 ft 196 kts 162°
2026-04-20 13:48 48.87768 11.52329 4386 ft 193 kts 162°
2026-04-20 13:49 48.86501 11.52970 4385 ft 191 kts 162°
2026-04-20 13:49 48.85244 11.53606 4385 ft 190 kts 162°
2026-04-20 13:49 48.83993 11.54241 4384 ft 189 kts 162°
2026-04-20 13:49 48.82745 11.54872 4382 ft 188 kts 162°
2026-04-20 13:50 48.81507 11.55499 4385 ft 188 kts 162°
2026-04-20 13:50 48.80265 11.56126 4385 ft 188 kts 162°
2026-04-20 13:50 48.79024 11.56753 4384 ft 188 kts 162°
2026-04-20 13:50 48.77798 11.57373 4385 ft 188 kts 162°
2026-04-20 13:51 48.76554 11.58001 4385 ft 188 kts 162°
2026-04-20 13:51 48.75308 11.58629 4385 ft 188 kts 162°
2026-04-20 13:51 48.74064 11.59257 4385 ft 189 kts 162°
2026-04-20 13:51 48.72814 11.59887 4385 ft 189 kts 162°
2026-04-20 13:52 48.71568 11.60515 4385 ft 188 kts 162°
2026-04-20 13:52 48.70323 11.61141 4385 ft 189 kts 162°
2026-04-20 13:52 48.69076 11.61769 4384 ft 188 kts 162°
2026-04-20 13:52 48.67833 11.62394 4385 ft 188 kts 162°
2026-04-20 13:53 48.66604 11.63012 4385 ft 188 kts 162°
2026-04-20 13:53 48.65360 11.63637 4385 ft 188 kts 162°
2026-04-20 13:53 48.64116 11.64262 4385 ft 189 kts 162°
2026-04-20 13:53 48.62870 11.64887 4385 ft 189 kts 162°
2026-04-20 13:54 48.61627 11.65511 4398 ft 188 kts 162°
2026-04-20 13:54 48.60381 11.66136 4398 ft 188 kts 162°
2026-04-20 13:54 48.59138 11.66758 4398 ft 188 kts 162°
2026-04-20 13:54 48.57894 11.67382 4395 ft 189 kts 162°
2026-04-20 13:55 48.56650 11.68005 4410 ft 188 kts 162°
2026-04-20 13:55 48.55443 11.68760 4411 ft 188 kts 149°
2026-04-20 13:55 48.54346 11.69875 4285 ft 195 kts 146°
2026-04-20 13:55 48.53210 11.71076 4007 ft 204 kts 145°
2026-04-20 13:56 48.52026 11.72332 3682 ft 210 kts 145°
2026-04-20 13:56 48.50820 11.73616 3339 ft 213 kts 144°
2026-04-20 13:56 48.49654 11.74922 2861 ft 204 kts 143°
2026-04-20 13:56 48.48606 11.76120 2622 ft 173 kts 143°
2026-04-20 13:57 48.47698 11.77163 2615 ft 156 kts 143°
2026-04-20 13:57 48.46881 11.78101 2608 ft 143 kts 143°
2026-04-20 13:57 48.46159 11.78933 2609 ft 118 kts 143°
2026-04-20 13:57 48.45522 11.79674 2624 ft 122 kts 143°
2026-04-20 13:58 48.44806 11.80500 2628 ft 136 kts 143°
2026-04-20 13:58 48.43958 11.81261 2625 ft 149 kts 166°
2026-04-20 13:58 48.42915 11.81542 2625 ft 152 kts 171°
2026-04-20 13:58 48.41889 11.81799 2548 ft 147 kts 171°
2026-04-20 13:59 48.40907 11.82047 2424 ft 139 kts 171°
2026-04-20 13:59 48.40005 11.82275 2416 ft 125 kts 171°
2026-04-20 13:59 48.39182 11.82488 2410 ft 117 kts 171°
2026-04-20 13:59 48.38396 11.82692 2411 ft 114 kts 171°
2026-04-20 14:00 48.37611 11.82896 2413 ft 116 kts 171°
2026-04-20 14:00 48.36746 11.83114 2425 ft 135 kts 174°
2026-04-20 14:00 48.35770 11.82940 2425 ft 148 kts 194°
2026-04-20 14:00 48.34782 11.82359 2425 ft 157 kts 204°
2026-04-20 14:01 48.33777 11.81698 2428 ft 163 kts 204°
2026-04-20 14:01 48.32737 11.81013 2518 ft 162 kts 204°
2026-04-20 14:01 48.31710 11.80340 2612 ft 162 kts 202°
2026-04-20 14:01 48.30577 11.80232 2612 ft 168 kts 174°
2026-04-20 14:02 48.29405 11.80423 2613 ft 171 kts 171°
2026-04-20 14:02 48.28236 11.80737 2612 ft 169 kts 170°
2026-04-20 14:02 48.27456 11.80951 2612 ft 168 kts 170°
2026-04-20 14:02 48.26324 11.81262 2611 ft 167 kts 170°
2026-04-20 14:03 48.25181 11.81577 2612 ft 169 kts 170°
2026-04-20 14:03 48.23991 11.81744 2614 ft 175 kts 180°
2026-04-20 14:03 48.22762 11.81732 2615 ft 178 kts 181°
2026-04-20 14:03 48.21512 11.81710 2617 ft 180 kts 181°
2026-04-20 14:04 48.20251 11.81686 2617 ft 182 kts 181°
2026-04-20 14:04 48.18985 11.81663 2617 ft 182 kts 181°
2026-04-20 14:04 48.17712 11.81639 2617 ft 183 kts 181°
2026-04-20 14:04 48.16440 11.81614 2617 ft 183 kts 181°
2026-04-20 14:05 48.15205 11.81717 2624 ft 156 kts 150°
2026-04-20 14:05 48.14806 11.82702 2795 ft 96 kts 57°
2026-04-20 14:05 48.15347 11.83262 2953 ft 110 kts
2026-04-20 14:05 48.16246 11.83361 2849 ft 147 kts
2026-04-20 14:06 48.17325 11.83394 2734 ft 168 kts 350°
2026-04-20 14:06 48.18520 11.83061 2628 ft 179 kts 348°
2026-04-20 14:06 48.19750 11.82700 2627 ft 181 kts 348°
2026-04-20 14:06 48.20990 11.82335 2627 ft 182 kts 348°
2026-04-20 14:07 48.22236 11.81969 2626 ft 179 kts 348°
2026-04-20 14:07 48.23286 11.81662 2614 ft 151 kts 348°
2026-04-20 14:07 48.24288 11.81409 2592 ft 125 kts
2026-04-20 14:07 48.25118 11.81259 2612 ft 126 kts 326°
2026-04-20 14:08 48.25727 11.80521 2607 ft 105 kts 334°
2026-04-20 14:08 48.26523 11.80214 2627 ft 133 kts 345°
2026-04-20 14:08 48.27481 11.79861 2628 ft 146 kts 346°
2026-04-20 14:08 48.28489 11.79546 2628 ft 150 kts 349°
2026-04-20 14:09 48.29539 11.79314 2627 ft 155 kts 354°
2026-04-20 14:09 48.30624 11.79195 2628 ft 157 kts 355°
2026-04-20 14:09 48.31715 11.79148 2626 ft 157 kts
2026-04-20 14:09 48.32613 11.79847 2604 ft 134 kts 55°
2026-04-20 14:10 48.32682 11.81041 2610 ft 116 kts 119°
2026-04-20 14:10 48.32041 11.81565 2612 ft 106 kts 189°
2026-04-20 14:10 48.31574 11.80874 2616 ft 100 kts 266°
2026-04-20 14:10 48.31899 11.79903 2628 ft 116 kts 327°
2026-04-20 14:11 48.32677 11.79898 2627 ft 123 kts 31°
2026-04-20 14:11 48.33071 11.80998 2628 ft 127 kts 92°
2026-04-20 14:11 48.32646 11.81991 2613 ft 111 kts 159°
2026-04-20 14:11 48.31999 11.81777 2607 ft 94 kts 236°
2026-04-20 14:12 48.32068 11.80931 2631 ft 94 kts 323°
2026-04-20 14:12 48.32718 11.81000 2877 ft 105 kts 43°
2026-04-20 14:12 48.32895 11.82130 2977 ft 128 kts 108°
2026-04-20 14:12 48.32234 11.83051 3083 ft 131 kts 168°
2026-04-20 14:13 48.31580 11.82582 3188 ft 102 kts 260°
2026-04-20 14:13 48.31780 11.81718 3229 ft 98 kts 316°
2026-04-20 14:13 48.32376 11.81793 3039 ft 114 kts 91°
2026-04-20 14:13 48.31795 11.82093 3016 ft 102 kts 222°
2026-04-20 14:14 48.31687 11.81075 3083 ft 109 kts 304°
2026-04-20 14:14 48.32401 11.80708 3052 ft 128 kts
2026-04-20 14:14 48.33383 11.80707 3110 ft 146 kts 357°
2026-04-20 14:14 48.34446 11.80721 3136 ft 160 kts
2026-04-20 14:15 48.35600 11.80717 3129 ft 170 kts 354°
2026-04-20 14:15 48.36798 11.80510 3126 ft 177 kts 353°
2026-04-20 14:15 48.38025 11.80311 3031 ft 185 kts
2026-04-20 14:15 48.39206 11.80989 3155 ft 179 kts 24°
2026-04-20 14:16 48.40390 11.81514 3206 ft 178 kts
2026-04-20 14:16 48.41655 11.81413 3143 ft 183 kts
2026-04-20 14:16 48.42888 11.81873 3115 ft 186 kts 31°
2026-04-20 14:16 48.43784 11.83269 3115 ft 187 kts 53°
2026-04-20 14:17 48.44529 11.84871 3114 ft 187 kts 55°
2026-04-20 14:17 48.45261 11.86484 3114 ft 187 kts 55°
2026-04-20 14:17 48.45995 11.88103 3114 ft 186 kts 55°
2026-04-20 14:17 48.46724 11.89714 3114 ft 186 kts 55°
2026-04-20 14:18 48.47453 11.91328 3113 ft 186 kts 56°
2026-04-20 14:18 48.48090 11.93029 3114 ft 186 kts 62°
2026-04-20 14:18 48.48681 11.94771 3063 ft 186 kts 64°
2026-04-20 14:18 48.49264 11.96567 2915 ft 194 kts 69°
2026-04-20 14:19 48.49695 11.98422 2264 ft 177 kts 60°
2026-04-20 14:19 48.50177 11.99981 1707 ft 142 kts 62°
2026-04-20 14:19 48.50537 12.01209 1612 ft 116 kts 59°
2026-04-20 14:19 48.50835 12.02226 1425 ft 96 kts 61°
2026-04-20 14:20 48.51078 12.03076 1317 ft 78 kts 63°
2026-04-20 14:20 48.51258 12.03601 1322 ft 32 kts 24°
2026-04-20 14:20 48.51336 12.03667 1319 ft 0 kts 154°